createdAt,value
2022-10-13T00:01:48.468Z,102075.56
2022-10-13T00:06:53.301Z,102082.50
2022-10-13T00:12:01.008Z,102074.75
2022-10-13T00:17:02.841Z,102083.66
2022-10-13T00:22:04.718Z,102078.72
2022-10-13T00:27:10.270Z,102079.31
2022-10-13T00:32:14.911Z,102076.91
2022-10-13T00:37:16.762Z,102076.44
2022-10-13T00:42:18.761Z,102080.44
2022-10-13T00:47:21.752Z,102078.00
2022-10-13T00:52:26.029Z,102081.63
2022-10-13T00:57:32.557Z,102081.69
2022-10-13T01:05:21.909Z,102079.25
2022-10-13T01:10:44.892Z,102089.00
2022-10-13T01:15:52.120Z,102099.03
2022-10-13T01:21:20.322Z,102102.69
2022-10-13T01:27:10.524Z,102097.75
2022-10-13T01:32:23.363Z,102101.94
2022-10-13T01:37:34.656Z,102089.84
2022-10-13T01:42:48.374Z,102088.75
2022-10-13T01:47:54.405Z,102085.75
2022-10-13T01:52:59.735Z,102083.03
2022-10-13T01:58:08.969Z,102074.50
2022-10-13T02:03:41.557Z,102080.59
2022-10-13T02:08:49.484Z,102075.09
2022-10-13T02:13:54.693Z,102071.78
2022-10-13T02:18:58.978Z,102058.28
2022-10-13T02:24:01.543Z,102061.31
2022-10-13T02:29:20.471Z,102060.78
2022-10-13T02:34:22.421Z,102068.00
2022-10-13T02:39:24.282Z,102067.72
2022-10-13T02:44:28.209Z,102069.13
2022-10-13T02:49:30.806Z,102060.84
2022-10-13T02:54:32.535Z,102060.59
2022-10-13T03:05:16.624Z,102055.34
2022-10-13T03:10:21.757Z,102047.91
2022-10-13T03:15:29.934Z,102036.03
2022-10-13T03:20:45.992Z,102042.91
2022-10-13T03:25:50.214Z,102041.22
2022-10-13T03:31:02.791Z,102039.84
2022-10-13T03:36:20.339Z,102038.72
2022-10-13T03:41:34.277Z,102037.91
2022-10-13T03:46:39.347Z,102039.53
2022-10-13T03:51:53.049Z,102043.41
2022-10-13T03:57:22.546Z,102037.06
2022-10-13T04:02:40.522Z,102035.44
2022-10-13T04:07:55.346Z,102040.13
2022-10-13T04:13:09.540Z,102034.31
2022-10-13T04:38:02.269Z,102046.22
2022-10-13T04:43:16.350Z,102044.31
2022-10-13T04:48:19.896Z,102046.53
2022-10-13T04:53:37.220Z,102057.03
2022-10-13T04:58:48.064Z,102060.66
2022-10-13T05:04:09.027Z,102064.81
2022-10-13T05:09:25.128Z,102078.59
2022-10-13T05:14:30.864Z,102071.44
2022-10-13T05:19:47.569Z,102072.56
2022-10-13T05:25:03.431Z,102067.59
2022-10-13T05:30:14.019Z,102058.78
2022-10-13T05:40:39.134Z,102046.69
2022-10-13T05:45:42.813Z,102048.38
2022-10-13T05:50:48.401Z,102036.78
2022-10-13T05:55:59.170Z,102032.38
2022-10-13T06:01:12.128Z,102027.97
2022-10-13T06:06:17.866Z,102035.97
2022-10-13T06:11:26.078Z,102031.28
2022-10-13T06:16:46.754Z,102032.91
2022-10-13T06:22:04.689Z,102035.41
2022-10-13T06:27:15.219Z,102045.03
2022-10-13T06:32:39.596Z,102057.72
2022-10-13T06:37:45.655Z,102060.72
2022-10-13T06:42:56.556Z,102067.03
2022-10-13T06:48:00.084Z,102064.25
2022-10-13T06:53:10.538Z,102061.97
2022-10-13T06:58:21.974Z,102063.03
2022-10-13T07:03:29.357Z,102078.44
2022-10-13T07:08:42.840Z,102079.47
2022-10-13T07:13:51.095Z,102091.13
2022-10-13T07:18:56.831Z,102095.56
2022-10-13T07:24:16.852Z,102101.81
2022-10-13T07:29:21.364Z,102105.34
2022-10-13T07:34:34.106Z,102097.50
2022-10-13T07:39:42.468Z,102104.84
2022-10-13T07:44:50.516Z,102104.03
2022-10-13T07:49:58.072Z,102119.94
2022-10-13T07:55:01.798Z,102114.22
2022-10-13T08:00:11.152Z,102114.75
2022-10-13T08:05:20.603Z,102125.47
2022-10-13T08:10:30.257Z,102128.59
2022-10-13T08:15:43.525Z,102129.22
2022-10-13T08:21:23.952Z,102132.97
2022-10-13T08:26:42.609Z,102129.19
2022-10-13T08:32:08.299Z,102114.06
2022-10-13T08:37:25.688Z,102108.38
2022-10-13T08:42:36.111Z,102112.41
2022-10-13T08:47:56.392Z,102097.69
2022-10-13T08:53:18.721Z,102101.97
2022-10-13T08:58:37.963Z,102101.03
2022-10-13T09:04:27.866Z,102099.53
2022-10-13T09:09:48.662Z,102104.75
2022-10-13T09:15:10.315Z,102110.22
2022-10-13T09:20:26.091Z,102102.94
2022-10-13T09:25:40.273Z,102101.13
2022-10-13T09:31:01.333Z,102094.81
2022-10-13T09:41:41.305Z,102086.94
2022-10-13T09:46:57.720Z,102076.47
2022-10-13T09:52:15.284Z,102079.69
2022-10-13T09:57:34.183Z,102078.88
2022-10-13T10:03:07.728Z,102082.47
2022-10-13T10:08:28.795Z,102071.31
2022-10-13T10:13:45.311Z,102075.72
2022-10-13T10:25:21.243Z,102065.06
2022-10-13T10:30:33.735Z,102059.63
2022-10-13T10:36:17.905Z,102052.69
2022-10-13T10:41:37.304Z,102049.69
2022-10-13T10:46:58.743Z,102043.34
2022-10-13T10:52:57.475Z,102055.91
2022-10-13T10:58:34.414Z,102052.00
2022-10-13T11:04:02.000Z,102039.97
2022-10-13T11:09:46.621Z,102037.50
2022-10-13T11:15:15.742Z,102044.22
2022-10-13T11:20:57.360Z,102034.03
2022-10-13T11:26:40.462Z,102026.34
2022-10-13T11:31:56.483Z,102020.44
2022-10-13T11:37:20.335Z,102023.44
2022-10-13T11:42:58.310Z,102005.78
2022-10-13T11:48:31.432Z,102002.09
2022-10-13T11:54:35.768Z,101981.38
2022-10-13T11:59:52.039Z,101962.94
2022-10-13T12:05:24.406Z,101954.59
2022-10-13T12:10:41.144Z,101939.69
2022-10-13T12:15:47.522Z,101930.91
2022-10-13T12:26:56.373Z,101906.69
2022-10-13T12:32:29.320Z,101911.91
2022-10-13T12:37:41.811Z,101917.00
2022-10-13T12:48:43.187Z,101882.06
2022-10-13T12:54:04.341Z,101868.78
2022-10-13T12:59:25.009Z,101859.69
2022-10-13T13:04:48.176Z,101854.00
2022-10-13T13:10:51.280Z,101858.22
2022-10-13T13:16:15.873Z,101866.16
2022-10-13T13:21:24.647Z,101840.97
2022-10-13T13:26:37.811Z,101860.97
2022-10-13T13:31:44.839Z,101856.56
2022-10-13T13:37:01.306Z,101836.03
2022-10-13T13:42:18.637Z,101838.00
2022-10-13T13:47:31.867Z,101832.94
2022-10-13T13:52:37.619Z,101826.84
2022-10-13T13:57:47.817Z,101825.34
2022-10-13T14:03:00.399Z,101814.72
2022-10-13T14:08:06.144Z,101818.47
2022-10-13T14:13:12.846Z,101827.09
2022-10-13T14:18:19.438Z,101809.09
2022-10-13T14:23:27.753Z,101815.69
2022-10-13T14:28:32.921Z,101807.03
2022-10-13T14:33:54.102Z,101809.91
2022-10-13T14:39:06.423Z,101809.63
2022-10-13T14:44:16.896Z,101804.44
2022-10-13T14:49:22.656Z,101800.09
2022-10-13T14:54:32.482Z,101797.34
2022-10-13T14:59:38.904Z,101805.38
2022-10-13T15:04:54.258Z,101813.91
2022-10-13T15:10:05.363Z,101809.50
2022-10-13T15:15:22.421Z,101824.53
2022-10-13T15:20:30.740Z,101818.97
2022-10-13T15:25:36.275Z,101820.25
2022-10-13T15:36:11.012Z,101819.34
2022-10-13T15:41:16.792Z,101818.38
2022-10-13T15:46:30.927Z,101814.16
2022-10-13T15:51:39.695Z,101811.06
2022-10-13T15:56:44.754Z,101817.16
2022-10-13T16:01:52.317Z,101833.72
2022-10-13T16:06:59.502Z,101830.28
2022-10-13T16:12:02.159Z,101833.25
2022-10-13T16:17:12.302Z,101828.53
2022-10-13T16:27:35.386Z,101845.06
2022-10-13T16:32:49.685Z,101845.00
2022-10-13T16:38:00.886Z,101856.94
2022-10-13T16:43:31.445Z,101850.41
2022-10-13T16:48:40.384Z,101862.16
2022-10-13T16:54:12.180Z,101876.53
2022-10-13T16:59:17.571Z,101875.72
2022-10-13T17:04:47.355Z,101868.44
2022-10-13T17:09:54.040Z,101888.06
2022-10-13T17:14:59.921Z,101894.09
2022-10-13T17:20:28.119Z,101904.50
2022-10-13T17:25:48.938Z,101911.81
2022-10-13T17:31:10.385Z,101912.47
2022-10-13T17:36:22.871Z,101915.06
2022-10-13T17:41:29.907Z,101930.56
2022-10-13T17:46:44.947Z,101931.50
2022-10-13T17:51:54.557Z,101944.88
2022-10-13T17:57:02.430Z,101948.00
2022-10-13T18:02:09.266Z,101958.28
2022-10-13T18:07:22.146Z,101954.19
2022-10-13T18:12:27.898Z,101943.56
2022-10-13T18:17:35.818Z,101947.47
2022-10-13T18:22:55.214Z,101952.53
2022-10-13T18:28:02.396Z,101964.78
2022-10-13T18:33:18.164Z,101960.03
2022-10-13T18:38:33.837Z,101969.19
2022-10-13T18:43:39.497Z,101984.22
2022-10-13T18:48:45.484Z,101986.50
2022-10-13T18:53:52.244Z,101993.19
2022-10-13T18:59:22.083Z,101982.22
2022-10-13T19:09:54.629Z,101989.84
2022-10-13T19:14:58.140Z,101986.56
2022-10-13T19:20:02.339Z,101980.50
2022-10-13T19:25:10.231Z,101974.44
2022-10-13T19:30:18.679Z,101979.19
2022-10-13T19:35:23.817Z,101982.28
2022-10-13T19:40:29.971Z,101973.44
2022-10-13T19:46:03.589Z,101976.50
2022-10-13T19:51:07.743Z,101980.72
2022-10-13T19:56:34.594Z,101982.69
2022-10-13T20:01:42.470Z,101971.88
2022-10-13T20:07:04.550Z,101969.94
2022-10-13T20:12:07.281Z,101969.13
2022-10-13T20:17:23.413Z,101969.75
2022-10-13T20:22:29.706Z,101975.59
2022-10-13T20:27:35.971Z,101982.28
2022-10-13T20:32:57.967Z,101990.13
2022-10-13T20:38:03.320Z,101991.25
2022-10-13T20:43:06.280Z,101979.97
2022-10-13T20:53:32.097Z,101988.59
2022-10-13T20:58:39.112Z,101984.50
2022-10-13T21:03:49.271Z,101983.44
2022-10-13T21:08:55.605Z,101973.28
2022-10-13T21:14:09.723Z,101970.31
2022-10-13T21:19:19.007Z,101974.53
2022-10-13T21:24:34.830Z,101972.06
2022-10-13T21:29:46.310Z,101970.25
2022-10-13T21:34:51.954Z,101978.38
2022-10-13T21:39:59.229Z,101974.56
2022-10-13T21:45:18.713Z,101964.41
2022-10-13T21:50:23.665Z,101971.72
2022-10-13T21:55:28.490Z,101970.69
2022-10-13T22:00:49.936Z,101967.53
2022-10-13T22:05:56.757Z,101967.94
2022-10-13T22:11:12.360Z,101972.75
2022-10-13T22:16:34.342Z,101969.25
2022-10-13T22:21:52.039Z,101967.94
2022-10-13T22:27:01.139Z,101966.91
2022-10-13T22:37:28.136Z,101965.56
2022-10-13T22:42:34.634Z,101970.28
2022-10-13T22:47:49.348Z,101967.63
2022-10-13T22:52:56.078Z,101959.41
2022-10-13T22:58:01.930Z,101965.03
2022-10-13T23:03:14.940Z,101966.56
2022-10-13T23:08:37.842Z,101962.88
2022-10-13T23:13:46.445Z,101963.28
2022-10-13T23:19:00.555Z,101953.41
2022-10-13T23:24:14.333Z,101947.38
2022-10-13T23:29:22.372Z,101947.47
2022-10-13T23:34:27.713Z,101937.00
2022-10-13T23:39:31.850Z,101947.84
2022-10-13T23:44:49.491Z,101949.25
2022-10-13T23:50:03.164Z,101944.03
